createdAt,value
2022-12-02T00:01:28.526Z,27.02
2022-12-02T00:03:56.754Z,19.42
2022-12-02T00:06:29.921Z,94.90
2022-12-02T00:09:03.214Z,73.00
2022-12-02T00:11:31.487Z,61.35
2022-12-02T00:14:02.846Z,63.40
2022-12-02T00:16:29.905Z,91.32
2022-12-02T00:18:57.178Z,51.65
2022-12-02T00:21:24.249Z,64.93
2022-12-02T00:23:51.134Z,84.10
2022-12-02T00:26:18.061Z,68.65
2022-12-02T00:28:45.729Z,26.65
2022-12-02T00:31:12.864Z,20.10
2022-12-02T00:33:39.947Z,23.63
2022-12-02T00:36:07.121Z,74.65
2022-12-02T00:38:33.925Z,124.13
2022-12-02T00:41:00.737Z,155.35
2022-12-02T00:43:46.908Z,160.17
2022-12-02T00:46:31.873Z,137.43
2022-12-02T00:48:59.746Z,142.55
2022-12-02T00:51:30.104Z,84.43
2022-12-02T00:53:57.017Z,76.50
2022-12-02T00:56:23.946Z,86.70
2022-12-02T00:58:51.775Z,90.68
2022-12-02T01:01:19.157Z,61.87
2022-12-02T01:03:46.441Z,203.57
2022-12-02T01:06:14.077Z,165.07
2022-12-02T01:08:41.371Z,168.27
2022-12-02T01:11:08.632Z,170.70
2022-12-02T01:13:36.461Z,178.07
2022-12-02T01:16:04.849Z,129.30
2022-12-02T01:18:32.269Z,153.38
2022-12-02T01:20:59.112Z,212.52
2022-12-02T01:23:25.981Z,216.38
2022-12-02T01:25:53.817Z,225.63
2022-12-02T01:28:20.641Z,218.60
2022-12-02T01:30:47.845Z,211.63
2022-12-02T01:33:14.920Z,144.57
2022-12-02T01:35:41.845Z,317.70
2022-12-02T01:38:09.539Z,203.90
2022-12-02T01:40:37.177Z,160.60
2022-12-02T01:43:04.058Z,223.48
2022-12-02T01:45:31.531Z,177.18
2022-12-02T01:48:03.513Z,282.40
2022-12-02T01:50:32.561Z,117.55
2022-12-02T01:53:00.870Z,96.68
2022-12-02T01:55:29.298Z,129.73
2022-12-02T01:57:58.475Z,176.80
2022-12-02T02:00:26.390Z,130.65
2022-12-02T02:02:53.268Z,171.73
2022-12-02T02:05:27.390Z,147.65
2022-12-02T02:07:57.851Z,133.77
2022-12-02T02:10:27.538Z,164.90
2022-12-02T02:12:55.355Z,164.02
2022-12-02T02:15:23.253Z,153.88
2022-12-02T02:17:51.688Z,150.85
2022-12-02T02:20:21.643Z,163.80
2022-12-02T02:22:51.253Z,159.98
2022-12-02T02:25:20.538Z,180.37
2022-12-02T02:27:57.129Z,203.03
2022-12-02T02:30:27.045Z,206.10
2022-12-02T02:32:54.256Z,260.73
2022-12-02T02:35:21.765Z,251.68
2022-12-02T02:37:50.645Z,190.33
2022-12-02T02:40:18.784Z,218.90
2022-12-02T02:42:50.033Z,215.70
2022-12-02T02:45:18.198Z,149.53
2022-12-02T02:47:45.925Z,142.50
2022-12-02T02:50:13.350Z,22.50
2022-12-02T02:52:40.539Z,75.88
2022-12-02T02:55:14.773Z,142.00
2022-12-02T02:57:41.590Z,15.57
2022-12-02T03:00:09.202Z,16.58
2022-12-02T03:02:36.414Z,18.02
2022-12-02T03:05:05.723Z,88.35
2022-12-02T03:07:33.710Z,121.47
2022-12-02T03:10:02.523Z,48.70
2022-12-02T03:12:30.677Z,71.17
2022-12-02T03:14:58.639Z,12.93
2022-12-02T03:17:25.638Z,74.87
2022-12-02T03:19:52.691Z,170.20
2022-12-02T03:22:20.779Z,157.88
2022-12-02T03:24:47.630Z,158.98
2022-12-02T03:27:15.217Z,159.27
2022-12-02T03:29:42.924Z,171.23
2022-12-02T03:32:10.863Z,81.82
2022-12-02T03:34:39.320Z,214.30
2022-12-02T03:37:06.068Z,255.38
2022-12-02T03:39:32.984Z,308.15
2022-12-02T03:41:59.819Z,218.38
2022-12-02T03:44:26.978Z,178.90
2022-12-02T03:46:53.933Z,244.05
2022-12-02T03:49:20.880Z,141.97
2022-12-02T03:51:48.542Z,145.57
2022-12-02T03:54:16.111Z,156.52
2022-12-02T03:56:43.428Z,229.23
2022-12-02T03:59:11.416Z,204.32
2022-12-02T04:01:38.261Z,252.57
2022-12-02T04:04:05.142Z,217.23
2022-12-02T04:06:32.030Z,223.98
2022-12-02T04:08:59.092Z,183.43
2022-12-02T04:11:26.843Z,195.10
2022-12-02T04:13:53.665Z,229.48
2022-12-02T04:16:20.482Z,217.10
2022-12-02T04:18:48.072Z,206.68
2022-12-02T04:21:14.819Z,13.53
2022-12-02T04:23:41.753Z,11.50
2022-12-02T04:26:08.576Z,13.07
2022-12-02T04:28:35.467Z,13.30
2022-12-02T04:31:02.451Z,37.60
2022-12-02T04:33:29.382Z,26.17
2022-12-02T04:35:56.234Z,22.30
2022-12-02T04:38:24.280Z,36.78
2022-12-02T04:40:51.151Z,12.73
2022-12-02T04:43:17.956Z,12.88
2022-12-02T04:45:44.714Z,13.45
2022-12-02T04:48:11.610Z,13.80
2022-12-02T04:50:38.506Z,14.57
2022-12-02T04:53:05.387Z,18.95
2022-12-02T04:55:33.112Z,16.27
2022-12-02T04:57:59.985Z,14.02
2022-12-02T05:00:26.682Z,14.65
2022-12-02T05:02:53.629Z,13.55
2022-12-02T05:05:20.455Z,13.02
2022-12-02T05:07:47.314Z,14.00
2022-12-02T05:10:14.622Z,16.17
2022-12-02T05:12:42.408Z,14.57
2022-12-02T05:15:09.518Z,14.57
2022-12-02T05:17:41.752Z,14.20
2022-12-02T05:20:09.634Z,15.88
2022-12-02T05:22:36.439Z,14.57
2022-12-02T05:25:03.719Z,18.33
2022-12-02T05:27:35.327Z,16.35
2022-12-02T05:30:07.505Z,16.08
2022-12-02T05:32:34.561Z,20.50
2022-12-02T05:35:01.308Z,18.88
2022-12-02T05:37:28.003Z,16.77
2022-12-02T05:39:55.972Z,14.70
2022-12-02T05:42:22.783Z,15.93
2022-12-02T05:44:49.621Z,16.95
2022-12-02T05:47:18.103Z,16.73
2022-12-02T05:49:46.956Z,15.70
2022-12-02T05:52:23.213Z,32.38
2022-12-02T05:54:56.156Z,26.33
2022-12-02T05:57:29.878Z,18.92
2022-12-02T06:00:23.342Z,15.48
2022-12-02T06:02:56.920Z,32.25
2022-12-02T06:05:24.798Z,34.58
2022-12-02T06:08:01.335Z,31.40
2022-12-02T06:10:31.571Z,40.00
2022-12-02T06:13:10.239Z,46.17
2022-12-02T06:15:38.309Z,37.13
2022-12-02T06:18:14.575Z,38.20
2022-12-02T06:20:43.348Z,44.55
2022-12-02T06:23:16.545Z,39.58
2022-12-02T06:25:44.497Z,110.35
2022-12-02T06:28:36.166Z,169.53
2022-12-02T06:31:18.332Z,774.00
2022-12-02T06:33:48.607Z,14.13
2022-12-02T06:36:25.655Z,21.25
2022-12-02T06:38:57.458Z,18.92
2022-12-02T06:41:24.217Z,33.90
2022-12-02T06:44:10.057Z,15.05
2022-12-02T06:46:37.878Z,15.18
2022-12-02T06:49:20.944Z,78.72
2022-12-02T06:51:55.467Z,13.98
2022-12-02T06:54:26.612Z,13.83
2022-12-02T06:56:53.802Z,13.32
2022-12-02T06:59:23.243Z,61.65
2022-12-02T07:01:58.262Z,33.78
2022-12-02T07:04:49.934Z,39.67
2022-12-02T07:07:23.634Z,24.23
2022-12-02T07:10:00.439Z,21.13
2022-12-02T07:12:43.814Z,155.07
2022-12-02T07:15:30.118Z,112.33
2022-12-02T07:18:00.878Z,59.15
2022-12-02T07:20:34.622Z,40.35
2022-12-02T07:23:19.952Z,22.38
2022-12-02T07:25:57.810Z,49.15
2022-12-02T07:28:39.820Z,39.50
2022-12-02T07:31:10.662Z,32.65
2022-12-02T07:33:39.889Z,36.97
2022-12-02T07:36:07.218Z,37.72
2022-12-02T07:39:04.796Z,35.58
2022-12-02T07:41:21.241Z,23.33
2022-12-02T07:43:48.036Z,13.65
2022-12-02T07:46:14.897Z,13.67
2022-12-02T07:48:41.836Z,14.60
2022-12-02T07:51:08.666Z,12.80
2022-12-02T07:53:35.404Z,16.20
2022-12-02T07:56:02.161Z,14.65
2022-12-02T07:58:48.209Z,16.80
2022-12-02T08:01:19.362Z,14.30
2022-12-02T08:03:46.750Z,47.20
2022-12-02T08:06:13.583Z,40.83
2022-12-02T08:08:40.325Z,47.83
2022-12-02T08:11:07.122Z,59.95
2022-12-02T08:13:33.921Z,36.97
2022-12-02T08:16:00.765Z,40.78
2022-12-02T08:18:27.606Z,65.80
2022-12-02T08:20:54.443Z,55.63
2022-12-02T08:23:21.283Z,70.05
2022-12-02T08:25:48.061Z,75.33
2022-12-02T08:28:14.903Z,88.15
2022-12-02T08:30:41.860Z,126.18
2022-12-02T08:33:08.866Z,130.18
2022-12-02T08:35:35.714Z,105.43
2022-12-02T08:38:02.492Z,119.15
2022-12-02T08:40:29.307Z,129.88
2022-12-02T08:42:56.419Z,154.63
2022-12-02T08:45:23.393Z,135.57
2022-12-02T08:47:50.261Z,147.98
2022-12-02T08:50:17.227Z,146.47
2022-12-02T08:52:43.973Z,92.03
2022-12-02T08:55:10.942Z,160.60
2022-12-02T08:57:37.782Z,139.60
2022-12-02T09:00:09.070Z,148.20
2022-12-02T09:02:36.339Z,128.98
2022-12-02T09:05:03.779Z,167.73
2022-12-02T09:07:30.568Z,94.68
2022-12-02T09:09:58.535Z,148.38
2022-12-02T09:12:28.226Z,199.63
2022-12-02T09:14:54.982Z,193.87
2022-12-02T09:17:21.829Z,171.48
2022-12-02T09:19:48.557Z,200.25
2022-12-02T09:22:15.464Z,224.95
2022-12-02T09:24:42.273Z,219.05
2022-12-02T09:27:09.129Z,220.97
2022-12-02T09:29:35.952Z,100.25
2022-12-02T09:32:02.846Z,99.90
2022-12-02T09:34:29.606Z,153.40
2022-12-02T09:36:56.390Z,179.68
2022-12-02T09:39:24.563Z,141.73
2022-12-02T09:41:51.490Z,134.07
2022-12-02T09:44:18.321Z,169.98
2022-12-02T09:46:45.245Z,142.93
2022-12-02T09:49:12.144Z,134.30
2022-12-02T09:51:38.888Z,145.07
2022-12-02T09:54:05.679Z,174.10
2022-12-02T09:56:32.572Z,144.40
2022-12-02T09:58:59.258Z,111.70
2022-12-02T10:01:27.369Z,97.15
2022-12-02T10:03:55.496Z,38.00
2022-12-02T10:06:29.572Z,37.63
2022-12-02T10:08:58.037Z,55.05
2022-12-02T10:11:27.915Z,56.47
2022-12-02T10:13:56.600Z,57.90
2022-12-02T10:16:23.910Z,94.05
2022-12-02T10:18:50.732Z,105.78
2022-12-02T10:21:17.563Z,119.40
2022-12-02T10:24:07.808Z,139.15
2022-12-02T10:26:46.935Z,174.02
2022-12-02T10:29:34.761Z,181.63
2022-12-02T10:32:03.624Z,183.27
2022-12-02T10:34:33.212Z,211.45
2022-12-02T10:37:18.041Z,251.45
2022-12-02T10:39:44.786Z,208.35
2022-12-02T10:42:20.771Z,201.68
2022-12-02T10:45:08.223Z,192.07
2022-12-02T10:47:34.997Z,195.90
2022-12-02T10:50:01.921Z,188.45
2022-12-02T10:52:28.687Z,191.23
2022-12-02T10:54:58.717Z,202.23
2022-12-02T10:57:29.287Z,224.25
2022-12-02T10:59:58.867Z,180.73
2022-12-02T11:02:38.426Z,154.07
2022-12-02T11:05:18.779Z,154.13
2022-12-02T11:07:56.642Z,210.57
2022-12-02T11:10:27.054Z,260.80
2022-12-02T11:12:54.450Z,253.18
2022-12-02T11:15:34.449Z,285.70
2022-12-02T11:18:02.233Z,323.00
2022-12-02T11:20:38.454Z,325.80
2022-12-02T11:23:22.332Z,324.48
2022-12-02T11:25:51.334Z,329.02
2022-12-02T11:28:18.013Z,329.25
2022-12-02T11:30:46.210Z,303.80
2022-12-02T11:33:53.034Z,229.65
2022-12-02T11:36:26.302Z,153.90
2022-12-02T11:38:53.077Z,182.50
2022-12-02T11:41:19.797Z,250.52
2022-12-02T11:43:46.513Z,133.35
2022-12-02T11:46:18.661Z,271.65
2022-12-02T11:48:55.163Z,263.70
2022-12-02T11:51:41.418Z,120.17
2022-12-02T11:54:14.296Z,51.70
2022-12-02T11:56:43.117Z,65.05
2022-12-02T11:59:29.476Z,190.75
2022-12-02T12:02:20.554Z,176.63
2022-12-02T12:05:07.616Z,52.85
2022-12-02T12:07:49.100Z,143.13
2022-12-02T12:10:26.096Z,166.55
2022-12-02T12:13:12.970Z,176.25
2022-12-02T12:15:57.909Z,204.52
2022-12-02T12:18:47.384Z,52.58
2022-12-02T12:21:41.841Z,51.03
2022-12-02T12:24:19.855Z,50.58
2022-12-02T12:26:56.755Z,89.03
2022-12-02T12:29:26.569Z,180.63
2022-12-02T12:31:53.495Z,165.15
2022-12-02T12:34:20.325Z,206.48
2022-12-02T12:36:47.465Z,69.28
2022-12-02T12:39:16.147Z,37.08
2022-12-02T12:42:00.606Z,25.57
2022-12-02T12:44:31.163Z,31.17
2022-12-02T12:47:05.983Z,30.43
2022-12-02T12:49:34.314Z,35.22
2022-12-02T12:52:01.835Z,37.65
2022-12-02T12:54:28.845Z,45.97
2022-12-02T12:56:55.717Z,42.40
2022-12-02T12:59:22.617Z,27.77
2022-12-02T13:01:49.554Z,53.60
2022-12-02T13:04:16.559Z,67.88
2022-12-02T13:06:43.705Z,96.45
2022-12-02T13:09:14.250Z,109.35
2022-12-02T13:11:42.021Z,108.50
2022-12-02T13:14:09.021Z,147.85
2022-12-02T13:16:35.976Z,154.07
2022-12-02T13:19:03.144Z,232.07
2022-12-02T13:21:30.137Z,298.73
2022-12-02T13:23:58.920Z,257.85
2022-12-02T13:26:25.807Z,213.38
2022-12-02T13:28:53.500Z,222.15
2022-12-02T13:31:21.170Z,215.50
2022-12-02T13:33:48.054Z,231.10
2022-12-02T13:36:15.984Z,240.75
2022-12-02T13:38:43.810Z,289.00
2022-12-02T13:41:11.599Z,278.25
2022-12-02T13:43:38.435Z,279.67
2022-12-02T13:46:05.328Z,300.48
2022-12-02T13:48:32.637Z,297.08
2022-12-02T13:51:02.435Z,321.30
2022-12-02T13:53:29.517Z,263.33
2022-12-02T13:55:56.341Z,233.45
2022-12-02T13:58:23.138Z,256.80
2022-12-02T14:00:50.008Z,260.98
2022-12-02T14:03:16.883Z,252.85
2022-12-02T14:05:43.587Z,267.63
2022-12-02T14:08:10.400Z,266.00
2022-12-02T14:10:39.278Z,254.02
2022-12-02T14:13:13.382Z,261.90
2022-12-02T14:15:43.977Z,264.17
2022-12-02T14:18:10.889Z,294.00
2022-12-02T14:20:37.678Z,284.70
2022-12-02T14:23:04.724Z,341.77
2022-12-02T14:25:32.538Z,310.13
2022-12-02T14:28:00.343Z,316.52
2022-12-02T14:30:27.218Z,210.55
2022-12-02T14:32:54.204Z,183.10
2022-12-02T14:35:21.081Z,181.20
2022-12-02T14:37:47.807Z,211.25
2022-12-02T14:40:15.528Z,194.30
2022-12-02T14:42:42.274Z,193.50
2022-12-02T14:45:10.142Z,199.23
2022-12-02T14:47:36.932Z,208.37
2022-12-02T14:50:04.047Z,205.45
2022-12-02T14:52:30.830Z,212.25
2022-12-02T14:54:58.636Z,209.75
2022-12-02T14:57:25.462Z,255.85
2022-12-02T14:59:52.211Z,244.98
2022-12-02T15:02:18.946Z,252.20
2022-12-02T15:04:45.917Z,271.27
2022-12-02T15:07:12.600Z,293.40
2022-12-02T15:09:39.482Z,269.30
2022-12-02T15:12:06.693Z,300.73
2022-12-02T15:14:33.529Z,294.00
2022-12-02T15:17:00.419Z,309.60
2022-12-02T15:19:27.219Z,370.88
2022-12-02T15:21:53.964Z,339.75
2022-12-02T15:24:20.760Z,366.13
2022-12-02T15:26:52.289Z,365.63
2022-12-02T15:29:22.065Z,331.65
2022-12-02T15:31:49.020Z,451.17
2022-12-02T15:34:15.821Z,371.77
2022-12-02T15:36:42.686Z,294.98
2022-12-02T15:39:09.728Z,268.55
2022-12-02T15:41:37.507Z,251.73
2022-12-02T15:44:04.907Z,243.70
2022-12-02T15:46:31.987Z,177.48
2022-12-02T15:49:00.830Z,248.80
2022-12-02T15:51:28.685Z,225.82
2022-12-02T15:53:55.503Z,221.90
2022-12-02T15:56:22.467Z,271.63
2022-12-02T15:58:50.205Z,249.38
2022-12-02T16:01:18.217Z,281.58
2022-12-02T16:03:46.233Z,240.70
2022-12-02T16:06:13.014Z,248.98
2022-12-02T16:08:39.876Z,267.45
2022-12-02T16:11:06.839Z,321.05
2022-12-02T16:13:33.733Z,426.05
2022-12-02T16:16:00.614Z,285.67
2022-12-02T16:18:28.508Z,543.75
2022-12-02T16:20:57.404Z,554.60
2022-12-02T16:23:24.163Z,697.60
2022-12-02T16:25:51.995Z,512.00
2022-12-02T16:28:18.923Z,524.28
2022-12-02T16:30:46.194Z,559.67
2022-12-02T16:33:13.015Z,354.73
2022-12-02T16:35:42.878Z,219.48
2022-12-02T16:38:11.718Z,320.67
2022-12-02T16:40:38.426Z,578.88
2022-12-02T16:43:05.235Z,334.70
2022-12-02T16:45:32.087Z,724.03
2022-12-02T16:47:58.980Z,1013.00
2022-12-02T16:50:25.852Z,303.33
2022-12-02T16:52:52.669Z,276.80
2022-12-02T16:55:20.515Z,342.33
2022-12-02T16:57:47.560Z,217.38
2022-12-02T17:00:14.870Z,218.47
2022-12-02T17:02:42.939Z,352.27
2022-12-02T17:05:10.457Z,287.90
2022-12-02T17:07:37.435Z,176.20
2022-12-02T17:10:05.078Z,246.50
2022-12-02T17:12:33.874Z,105.57
2022-12-02T17:15:01.142Z,167.67
2022-12-02T17:17:45.531Z,264.70
2022-12-02T17:20:14.118Z,76.90
2022-12-02T17:22:41.682Z,174.63
2022-12-02T17:25:09.863Z,173.48
2022-12-02T17:27:37.668Z,301.03
2022-12-02T17:30:05.211Z,174.02
2022-12-02T17:32:33.044Z,192.38
2022-12-02T17:34:59.768Z,179.10
2022-12-02T17:37:26.612Z,233.52
2022-12-02T17:39:53.326Z,428.27
2022-12-02T17:42:20.243Z,372.77
2022-12-02T17:44:47.031Z,210.07
2022-12-02T17:47:13.891Z,184.32
2022-12-02T17:49:41.659Z,221.43
2022-12-02T17:52:23.556Z,214.93
2022-12-02T17:54:50.695Z,239.40
2022-12-02T17:57:18.839Z,241.65
2022-12-02T17:59:45.510Z,255.75
2022-12-02T18:02:12.513Z,248.82
2022-12-02T18:04:44.424Z,263.25
2022-12-02T18:07:11.822Z,250.77
2022-12-02T18:09:38.991Z,262.33
2022-12-02T18:12:06.930Z,259.70
2022-12-02T18:14:34.120Z,234.18
2022-12-02T18:17:01.023Z,224.02
2022-12-02T18:19:27.944Z,227.68
2022-12-02T18:21:54.771Z,274.30
2022-12-02T18:24:21.638Z,250.52
2022-12-02T18:26:48.386Z,250.53
2022-12-02T18:29:15.226Z,343.25
2022-12-02T18:31:42.067Z,504.52
2022-12-02T18:34:08.777Z,301.20
2022-12-02T18:36:35.481Z,289.40
2022-12-02T18:39:02.232Z,254.27
2022-12-02T18:41:29.064Z,354.85
2022-12-02T18:43:56.815Z,238.07
2022-12-02T18:46:24.745Z,265.67
2022-12-02T18:48:51.691Z,241.85
2022-12-02T18:51:18.668Z,270.40
2022-12-02T18:53:45.507Z,270.00
2022-12-02T18:56:19.017Z,302.58
2022-12-02T18:58:50.041Z,298.17
2022-12-02T19:01:16.867Z,300.20
2022-12-02T19:03:43.981Z,320.45
2022-12-02T19:06:10.835Z,353.65
2022-12-02T19:08:37.857Z,393.25
2022-12-02T19:11:04.738Z,369.77
2022-12-02T19:13:31.564Z,259.83
2022-12-02T19:15:58.503Z,228.87
2022-12-02T19:18:25.413Z,235.50
2022-12-02T19:20:52.189Z,264.63
2022-12-02T19:23:18.952Z,274.40
2022-12-02T19:25:50.014Z,168.43
2022-12-02T19:28:19.372Z,298.97
2022-12-02T19:30:46.099Z,88.32
2022-12-02T19:33:13.467Z,112.67
2022-12-02T19:35:40.184Z,89.10
2022-12-02T19:38:13.330Z,101.60
2022-12-02T19:40:45.111Z,152.00
2022-12-02T19:43:13.475Z,172.75
2022-12-02T19:45:40.386Z,166.75
2022-12-02T19:48:07.231Z,194.57
2022-12-02T19:50:34.217Z,335.30
2022-12-02T19:53:01.484Z,258.67
2022-12-02T19:55:28.303Z,204.90
2022-12-02T19:57:55.111Z,368.17
2022-12-02T20:00:22.096Z,242.95
2022-12-02T20:02:49.048Z,238.50
2022-12-02T20:05:21.101Z,266.52
2022-12-02T20:07:48.960Z,250.82
2022-12-02T20:10:17.283Z,396.27
2022-12-02T20:12:44.056Z,333.25
2022-12-02T20:15:11.607Z,242.67
2022-12-02T20:17:38.678Z,303.02
2022-12-02T20:20:07.677Z,1032.20
2022-12-02T20:22:34.658Z,200.10
2022-12-02T20:25:02.431Z,632.42
2022-12-02T20:27:29.175Z,493.83
2022-12-02T20:29:55.983Z,201.52
2022-12-02T20:32:22.742Z,300.85
2022-12-02T20:34:49.727Z,242.52
2022-12-02T20:37:16.534Z,134.68
2022-12-02T20:39:43.520Z,110.85
2022-12-02T20:42:10.707Z,124.50
2022-12-02T20:44:37.513Z,103.20
2022-12-02T20:47:04.483Z,90.38
2022-12-02T20:49:31.280Z,95.10
2022-12-02T20:51:58.069Z,130.85
2022-12-02T20:54:27.029Z,155.60
2022-12-02T20:56:53.867Z,98.35
2022-12-02T20:59:20.562Z,115.80
2022-12-02T21:01:47.499Z,106.78
2022-12-02T21:04:14.405Z,106.88
2022-12-02T21:06:41.254Z,117.32
2022-12-02T21:09:08.030Z,128.30
2022-12-02T21:11:34.850Z,122.07
2022-12-02T21:14:01.691Z,127.57
2022-12-02T21:16:28.541Z,129.05
2022-12-02T21:18:55.333Z,146.73
2022-12-02T21:21:22.150Z,155.77
2022-12-02T21:23:48.962Z,140.02
2022-12-02T21:26:15.807Z,139.77
2022-12-02T21:28:42.575Z,135.53
2022-12-02T21:31:09.383Z,151.65
2022-12-02T21:33:36.306Z,178.15
2022-12-02T21:36:03.187Z,177.07
2022-12-02T21:38:30.790Z,160.80
2022-12-02T21:40:57.538Z,174.87
2022-12-02T21:43:24.266Z,86.55
2022-12-02T21:45:51.016Z,124.70
2022-12-02T21:48:17.852Z,176.68
2022-12-02T21:50:44.720Z,167.90
2022-12-02T21:53:11.410Z,193.37
2022-12-02T21:55:38.171Z,176.13
2022-12-02T21:58:05.132Z,187.70
2022-12-02T22:00:33.134Z,213.13
2022-12-02T22:02:59.998Z,236.68
2022-12-02T22:05:26.720Z,167.85
2022-12-02T22:07:53.718Z,141.98
2022-12-02T22:10:23.486Z,169.52
2022-12-02T22:12:52.315Z,160.45
2022-12-02T22:15:21.823Z,192.30
2022-12-02T22:17:48.813Z,256.02
2022-12-02T22:20:18.087Z,210.35
2022-12-02T22:22:45.172Z,204.70
2022-12-02T22:25:11.925Z,222.82
2022-12-02T22:27:38.763Z,204.13
2022-12-02T22:30:06.981Z,232.07
2022-12-02T22:32:35.113Z,222.50
2022-12-02T22:35:03.339Z,224.48
2022-12-02T22:37:30.089Z,218.80
2022-12-02T22:39:56.927Z,249.30
2022-12-02T22:42:23.977Z,268.13
2022-12-02T22:44:51.206Z,266.30
2022-12-02T22:47:19.374Z,249.55
2022-12-02T22:49:47.222Z,274.33
2022-12-02T22:52:14.066Z,250.40
2022-12-02T22:54:41.001Z,232.23
2022-12-02T22:57:07.807Z,223.90
2022-12-02T22:59:34.665Z,231.27
2022-12-02T23:02:01.495Z,188.48
2022-12-02T23:04:28.265Z,198.18
2022-12-02T23:06:54.968Z,215.77
2022-12-02T23:09:22.910Z,248.90
2022-12-02T23:11:49.753Z,235.05
2022-12-02T23:14:16.477Z,264.60
2022-12-02T23:16:43.299Z,265.52
2022-12-02T23:19:10.036Z,132.20
2022-12-02T23:21:36.807Z,149.82
2022-12-02T23:24:03.782Z,135.80
2022-12-02T23:26:30.531Z,135.40
2022-12-02T23:28:57.236Z,151.82
2022-12-02T23:31:25.080Z,141.93
2022-12-02T23:33:53.953Z,146.93
2022-12-02T23:36:20.838Z,161.90
2022-12-02T23:38:47.638Z,146.10
2022-12-02T23:41:14.488Z,142.10
2022-12-02T23:43:42.252Z,195.20
2022-12-02T23:46:09.063Z,246.38
2022-12-02T23:48:35.927Z,268.05
2022-12-02T23:51:02.699Z,234.35
2022-12-02T23:53:29.405Z,229.48
2022-12-02T23:55:56.174Z,246.80
2022-12-02T23:58:22.996Z,246.00
